sensor_id;sensor_type;location;lat;lon;timestamp;temperature;humidity
17399;DHT22;8817;48.170;8.592;2023-05-10T00:01:27;18.30;51.90
17399;DHT22;8817;48.170;8.592;2023-05-10T00:03:53;18.20;51.90
17399;DHT22;8817;48.170;8.592;2023-05-10T00:06:20;18.10;51.90
17399;DHT22;8817;48.170;8.592;2023-05-10T00:08:47;18.10;52.00
17399;DHT22;8817;48.170;8.592;2023-05-10T00:11:14;18.10;52.00
17399;DHT22;8817;48.170;8.592;2023-05-10T00:13:42;18.00;52.00
17399;DHT22;8817;48.170;8.592;2023-05-10T00:16:09;18.00;52.00
17399;DHT22;8817;48.170;8.592;2023-05-10T00:18:37;18.00;52.10
17399;DHT22;8817;48.170;8.592;2023-05-10T00:21:04;18.00;52.20
17399;DHT22;8817;48.170;8.592;2023-05-10T00:23:31;18.00;52.20
17399;DHT22;8817;48.170;8.592;2023-05-10T00:25:58;17.90;52.20
17399;DHT22;8817;48.170;8.592;2023-05-10T00:28:27;17.90;52.20
17399;DHT22;8817;48.170;8.592;2023-05-10T00:30:55;18.00;52.20
17399;DHT22;8817;48.170;8.592;2023-05-10T00:33:22;17.90;52.20
17399;DHT22;8817;48.170;8.592;2023-05-10T00:35:49;17.90;52.20
17399;DHT22;8817;48.170;8.592;2023-05-10T00:38:16;17.90;52.20
17399;DHT22;8817;48.170;8.592;2023-05-10T00:40:43;17.90;52.20
17399;DHT22;8817;48.170;8.592;2023-05-10T00:43:10;17.90;52.30
17399;DHT22;8817;48.170;8.592;2023-05-10T00:45:37;17.90;52.30
17399;DHT22;8817;48.170;8.592;2023-05-10T00:48:06;17.90;52.30
17399;DHT22;8817;48.170;8.592;2023-05-10T00:50:33;17.90;52.30
17399;DHT22;8817;48.170;8.592;2023-05-10T00:53:01;17.90;52.30
17399;DHT22;8817;48.170;8.592;2023-05-10T00:55:29;17.90;52.30
17399;DHT22;8817;48.170;8.592;2023-05-10T00:57:57;17.80;52.20
17399;DHT22;8817;48.170;8.592;2023-05-10T01:00:24;17.80;52.20
17399;DHT22;8817;48.170;8.592;2023-05-10T01:02:51;17.80;52.20
17399;DHT22;8817;48.170;8.592;2023-05-10T01:05:20;17.80;52.10
17399;DHT22;8817;48.170;8.592;2023-05-10T01:07:48;17.80;52.20
17399;DHT22;8817;48.170;8.592;2023-05-10T01:10:15;17.70;52.20
17399;DHT22;8817;48.170;8.592;2023-05-10T01:12:43;17.80;52.20
17399;DHT22;8817;48.170;8.592;2023-05-10T01:15:12;17.70;52.20
17399;DHT22;8817;48.170;8.592;2023-05-10T01:17:40;17.70;52.30
17399;DHT22;8817;48.170;8.592;2023-05-10T01:20:09;17.70;52.30
17399;DHT22;8817;48.170;8.592;2023-05-10T01:25:49;17.60;52.20
17399;DHT22;8817;48.170;8.592;2023-05-10T01:28:44;17.60;52.20
17399;DHT22;8817;48.170;8.592;2023-05-10T01:31:31;17.60;52.20
17399;DHT22;8817;48.170;8.592;2023-05-10T01:34:06;17.50;52.20
17399;DHT22;8817;48.170;8.592;2023-05-10T01:36:40;17.60;52.20
17399;DHT22;8817;48.170;8.592;2023-05-10T01:39:15;17.50;52.20
17399;DHT22;8817;48.170;8.592;2023-05-10T01:41:49;17.50;52.30
17399;DHT22;8817;48.170;8.592;2023-05-10T01:44:23;17.50;52.30
17399;DHT22;8817;48.170;8.592;2023-05-10T01:46:55;17.40;52.30
17399;DHT22;8817;48.170;8.592;2023-05-10T01:49:28;17.40;52.30
17399;DHT22;8817;48.170;8.592;2023-05-10T01:52:00;17.40;52.30
17399;DHT22;8817;48.170;8.592;2023-05-10T01:54:29;17.40;52.30
17399;DHT22;8817;48.170;8.592;2023-05-10T01:57:00;17.50;52.40
17399;DHT22;8817;48.170;8.592;2023-05-10T01:59:31;17.50;52.40
17399;DHT22;8817;48.170;8.592;2023-05-10T02:02:02;17.50;52.50
17399;DHT22;8817;48.170;8.592;2023-05-10T02:04:33;17.50;52.50
17399;DHT22;8817;48.170;8.592;2023-05-10T02:07:03;17.50;52.50
17399;DHT22;8817;48.170;8.592;2023-05-10T02:09:32;17.60;53.10
17399;DHT22;8817;48.170;8.592;2023-05-10T02:12:02;17.60;52.60
17399;DHT22;8817;48.170;8.592;2023-05-10T02:14:32;17.60;52.60
17399;DHT22;8817;48.170;8.592;2023-05-10T02:17:02;17.70;52.60
17399;DHT22;8817;48.170;8.592;2023-05-10T02:19:32;17.70;52.60
17399;DHT22;8817;48.170;8.592;2023-05-10T02:22:01;17.70;52.50
17399;DHT22;8817;48.170;8.592;2023-05-10T02:24:28;17.70;52.40
17399;DHT22;8817;48.170;8.592;2023-05-10T02:26:56;17.70;52.40
17399;DHT22;8817;48.170;8.592;2023-05-10T02:29:25;17.70;52.40
17399;DHT22;8817;48.170;8.592;2023-05-10T02:31:54;17.70;52.40
17399;DHT22;8817;48.170;8.592;2023-05-10T02:34:22;17.70;52.40
17399;DHT22;8817;48.170;8.592;2023-05-10T02:36:51;17.60;52.30
17399;DHT22;8817;48.170;8.592;2023-05-10T02:39:19;17.70;52.40
17399;DHT22;8817;48.170;8.592;2023-05-10T02:41:48;17.60;52.30
17399;DHT22;8817;48.170;8.592;2023-05-10T02:44:18;17.60;52.30
17399;DHT22;8817;48.170;8.592;2023-05-10T02:46:46;17.60;53.00
17399;DHT22;8817;48.170;8.592;2023-05-10T02:49:13;17.60;52.50
17399;DHT22;8817;48.170;8.592;2023-05-10T02:51:43;17.60;52.60
17399;DHT22;8817;48.170;8.592;2023-05-10T02:54:18;17.60;52.60
17399;DHT22;8817;48.170;8.592;2023-05-10T02:56:50;17.60;52.60
17399;DHT22;8817;48.170;8.592;2023-05-10T02:59:17;17.70;52.60
17399;DHT22;8817;48.170;8.592;2023-05-10T03:01:45;17.60;52.50
17399;DHT22;8817;48.170;8.592;2023-05-10T03:04:12;17.70;52.60
17399;DHT22;8817;48.170;8.592;2023-05-10T03:06:39;17.70;53.20
17399;DHT22;8817;48.170;8.592;2023-05-10T03:09:06;17.70;52.70
17399;DHT22;8817;48.170;8.592;2023-05-10T03:11:47;17.70;52.70
17399;DHT22;8817;48.170;8.592;2023-05-10T03:14:21;17.70;52.80
17399;DHT22;8817;48.170;8.592;2023-05-10T03:16:56;17.70;52.70
17399;DHT22;8817;48.170;8.592;2023-05-10T03:19:29;17.70;52.70
17399;DHT22;8817;48.170;8.592;2023-05-10T03:21:59;17.70;52.70
17399;DHT22;8817;48.170;8.592;2023-05-10T03:24:30;17.70;52.70
17399;DHT22;8817;48.170;8.592;2023-05-10T03:26:59;17.70;52.70
17399;DHT22;8817;48.170;8.592;2023-05-10T03:29:29;17.70;52.70
17399;DHT22;8817;48.170;8.592;2023-05-10T03:31:57;17.70;52.70
17399;DHT22;8817;48.170;8.592;2023-05-10T03:34:25;17.70;52.70
17399;DHT22;8817;48.170;8.592;2023-05-10T03:36:52;17.80;52.80
17399;DHT22;8817;48.170;8.592;2023-05-10T03:39:19;17.70;52.70
17399;DHT22;8817;48.170;8.592;2023-05-10T03:41:46;17.70;53.30
17399;DHT22;8817;48.170;8.592;2023-05-10T03:44:17;17.70;53.30
17399;DHT22;8817;48.170;8.592;2023-05-10T03:46:44;17.70;52.80
17399;DHT22;8817;48.170;8.592;2023-05-10T03:49:11;17.70;52.80
17399;DHT22;8817;48.170;8.592;2023-05-10T03:51:37;17.80;52.90
17399;DHT22;8817;48.170;8.592;2023-05-10T03:54:04;17.80;52.90
17399;DHT22;8817;48.170;8.592;2023-05-10T03:56:31;17.80;52.90
17399;DHT22;8817;48.170;8.592;2023-05-10T03:58:58;17.80;52.90
17399;DHT22;8817;48.170;8.592;2023-05-10T04:01:27;17.80;52.90
17399;DHT22;8817;48.170;8.592;2023-05-10T04:03:53;17.80;52.90
17399;DHT22;8817;48.170;8.592;2023-05-10T04:06:20;17.80;52.80
17399;DHT22;8817;48.170;8.592;2023-05-10T04:08:47;17.80;52.90
17399;DHT22;8817;48.170;8.592;2023-05-10T04:11:14;17.80;53.30
17399;DHT22;8817;48.170;8.592;2023-05-10T04:13:41;17.80;52.90
17399;DHT22;8817;48.170;8.592;2023-05-10T04:16:08;17.80;53.00
17399;DHT22;8817;48.170;8.592;2023-05-10T04:18:37;17.80;53.00
17399;DHT22;8817;48.170;8.592;2023-05-10T04:21:10;17.80;53.00
17399;DHT22;8817;48.170;8.592;2023-05-10T04:23:37;17.90;53.00
17399;DHT22;8817;48.170;8.592;2023-05-10T04:26:04;17.90;53.00
17399;DHT22;8817;48.170;8.592;2023-05-10T04:28:31;17.90;52.90
17399;DHT22;8817;48.170;8.592;2023-05-10T04:31:02;17.90;52.90
17399;DHT22;8817;48.170;8.592;2023-05-10T04:33:29;17.80;52.90
17399;DHT22;8817;48.170;8.592;2023-05-10T04:35:57;17.80;52.80
17399;DHT22;8817;48.170;8.592;2023-05-10T04:38:24;17.80;52.90
17399;DHT22;8817;48.170;8.592;2023-05-10T04:40:51;17.80;53.40
17399;DHT22;8817;48.170;8.592;2023-05-10T04:43:18;17.80;52.90
17399;DHT22;8817;48.170;8.592;2023-05-10T04:45:45;17.80;53.00
17399;DHT22;8817;48.170;8.592;2023-05-10T04:48:12;17.80;53.00
17399;DHT22;8817;48.170;8.592;2023-05-10T04:50:39;17.80;53.10
17399;DHT22;8817;48.170;8.592;2023-05-10T04:53:07;17.80;53.10
17399;DHT22;8817;48.170;8.592;2023-05-10T04:55:34;17.90;53.20
17399;DHT22;8817;48.170;8.592;2023-05-10T04:58:02;17.90;53.20
17399;DHT22;8817;48.170;8.592;2023-05-10T05:00:29;17.90;53.20
17399;DHT22;8817;48.170;8.592;2023-05-10T05:02:55;17.90;53.20
17399;DHT22;8817;48.170;8.592;2023-05-10T05:05:22;17.90;53.20
17399;DHT22;8817;48.170;8.592;2023-05-10T05:07:50;17.90;53.10
17399;DHT22;8817;48.170;8.592;2023-05-10T05:10:18;18.00;53.20
17399;DHT22;8817;48.170;8.592;2023-05-10T05:12:45;18.00;53.20
17399;DHT22;8817;48.170;8.592;2023-05-10T05:15:12;18.00;53.20
17399;DHT22;8817;48.170;8.592;2023-05-10T05:17:40;18.00;53.20
17399;DHT22;8817;48.170;8.592;2023-05-10T05:20:08;18.00;53.20
17399;DHT22;8817;48.170;8.592;2023-05-10T05:22:35;18.00;53.20
17399;DHT22;8817;48.170;8.592;2023-05-10T05:25:03;18.10;53.20
17399;DHT22;8817;48.170;8.592;2023-05-10T05:27:31;18.00;53.20
17399;DHT22;8817;48.170;8.592;2023-05-10T05:29:59;18.10;53.30
17399;DHT22;8817;48.170;8.592;2023-05-10T05:32:25;18.10;53.30
17399;DHT22;8817;48.170;8.592;2023-05-10T05:34:52;18.10;53.40
17399;DHT22;8817;48.170;8.592;2023-05-10T05:37:20;18.20;53.40
17399;DHT22;8817;48.170;8.592;2023-05-10T05:39:48;18.20;53.40
17399;DHT22;8817;48.170;8.592;2023-05-10T05:42:15;18.20;53.40
17399;DHT22;8817;48.170;8.592;2023-05-10T05:44:44;18.20;53.40
17399;DHT22;8817;48.170;8.592;2023-05-10T05:47:11;18.30;53.40
17399;DHT22;8817;48.170;8.592;2023-05-10T05:49:38;18.20;53.20
17399;DHT22;8817;48.170;8.592;2023-05-10T05:52:05;18.30;53.30
17399;DHT22;8817;48.170;8.592;2023-05-10T05:54:32;18.30;53.30
17399;DHT22;8817;48.170;8.592;2023-05-10T05:57:00;18.20;53.20
17399;DHT22;8817;48.170;8.592;2023-05-10T05:59:27;18.20;53.30
17399;DHT22;8817;48.170;8.592;2023-05-10T06:01:55;18.20;53.30
17399;DHT22;8817;48.170;8.592;2023-05-10T06:04:22;18.20;53.30
17399;DHT22;8817;48.170;8.592;2023-05-10T06:06:49;18.30;53.40
17399;DHT22;8817;48.170;8.592;2023-05-10T06:09:16;18.20;53.20
17399;DHT22;8817;48.170;8.592;2023-05-10T06:11:43;18.20;53.30
17399;DHT22;8817;48.170;8.592;2023-05-10T06:14:10;18.20;53.30
17399;DHT22;8817;48.170;8.592;2023-05-10T06:16:37;18.20;53.30
17399;DHT22;8817;48.170;8.592;2023-05-10T06:19:05;18.30;53.30
17399;DHT22;8817;48.170;8.592;2023-05-10T06:21:32;18.20;53.30
17399;DHT22;8817;48.170;8.592;2023-05-10T06:23:59;18.20;53.20
17399;DHT22;8817;48.170;8.592;2023-05-10T06:26:26;18.20;53.20
17399;DHT22;8817;48.170;8.592;2023-05-10T06:28:52;18.20;53.20
17399;DHT22;8817;48.170;8.592;2023-05-10T06:31:19;18.20;53.30
17399;DHT22;8817;48.170;8.592;2023-05-10T06:33:46;18.20;53.20
17399;DHT22;8817;48.170;8.592;2023-05-10T06:36:14;18.20;53.20
17399;DHT22;8817;48.170;8.592;2023-05-10T06:38:41;18.20;53.30
17399;DHT22;8817;48.170;8.592;2023-05-10T06:41:08;18.20;53.30
17399;DHT22;8817;48.170;8.592;2023-05-10T06:43:35;18.20;53.30
17399;DHT22;8817;48.170;8.592;2023-05-10T06:46:05;18.20;53.20
17399;DHT22;8817;48.170;8.592;2023-05-10T06:48:32;18.10;53.10
17399;DHT22;8817;48.170;8.592;2023-05-10T06:50:59;18.10;53.00
17399;DHT22;8817;48.170;8.592;2023-05-10T06:53:27;18.10;53.00
17399;DHT22;8817;48.170;8.592;2023-05-10T06:55:54;18.00;53.10
17399;DHT22;8817;48.170;8.592;2023-05-10T06:58:21;18.00;53.70
17399;DHT22;8817;48.170;8.592;2023-05-10T07:00:48;18.00;53.10
17399;DHT22;8817;48.170;8.592;2023-05-10T07:03:15;18.00;53.20
17399;DHT22;8817;48.170;8.592;2023-05-10T07:05:41;17.90;53.10
17399;DHT22;8817;48.170;8.592;2023-05-10T07:08:08;17.90;53.00
17399;DHT22;8817;48.170;8.592;2023-05-10T07:10:37;17.80;53.60
17399;DHT22;8817;48.170;8.592;2023-05-10T07:13:04;17.80;53.00
17399;DHT22;8817;48.170;8.592;2023-05-10T07:15:31;17.70;53.00
17399;DHT22;8817;48.170;8.592;2023-05-10T07:17:59;17.70;52.90
17399;DHT22;8817;48.170;8.592;2023-05-10T07:20:25;17.60;52.90
17399;DHT22;8817;48.170;8.592;2023-05-10T07:22:52;17.50;52.90
17399;DHT22;8817;48.170;8.592;2023-05-10T07:25:19;17.50;53.10
17399;DHT22;8817;48.170;8.592;2023-05-10T07:27:47;17.40;53.10
17399;DHT22;8817;48.170;8.592;2023-05-10T07:30:15;17.40;53.20
17399;DHT22;8817;48.170;8.592;2023-05-10T07:32:41;17.40;53.20
17399;DHT22;8817;48.170;8.592;2023-05-10T07:35:09;17.40;53.30
17399;DHT22;8817;48.170;8.592;2023-05-10T07:37:35;17.40;53.30
17399;DHT22;8817;48.170;8.592;2023-05-10T07:40:03;17.30;53.30
17399;DHT22;8817;48.170;8.592;2023-05-10T07:42:29;17.30;53.30
17399;DHT22;8817;48.170;8.592;2023-05-10T07:44:58;17.30;53.40
17399;DHT22;8817;48.170;8.592;2023-05-10T07:47:25;17.30;53.50
17399;DHT22;8817;48.170;8.592;2023-05-10T07:49:51;17.30;53.60
17399;DHT22;8817;48.170;8.592;2023-05-10T07:52:18;17.40;53.70
17399;DHT22;8817;48.170;8.592;2023-05-10T07:54:45;17.40;53.70
17399;DHT22;8817;48.170;8.592;2023-05-10T07:57:12;17.40;53.70
17399;DHT22;8817;48.170;8.592;2023-05-10T07:59:43;17.40;53.60
17399;DHT22;8817;48.170;8.592;2023-05-10T08:02:11;17.40;53.60
17399;DHT22;8817;48.170;8.592;2023-05-10T08:04:38;17.50;53.70
17399;DHT22;8817;48.170;8.592;2023-05-10T08:07:04;17.50;53.80
17399;DHT22;8817;48.170;8.592;2023-05-10T08:09:31;17.50;53.80
17399;DHT22;8817;48.170;8.592;2023-05-10T08:11:58;17.50;53.80
17399;DHT22;8817;48.170;8.592;2023-05-10T08:14:27;17.60;53.90
17399;DHT22;8817;48.170;8.592;2023-05-10T08:16:54;17.60;53.90
17399;DHT22;8817;48.170;8.592;2023-05-10T08:19:23;17.60;53.80
17399;DHT22;8817;48.170;8.592;2023-05-10T08:21:49;17.60;53.80
17399;DHT22;8817;48.170;8.592;2023-05-10T08:24:16;17.60;53.70
17399;DHT22;8817;48.170;8.592;2023-05-10T08:26:43;17.60;54.00
17399;DHT22;8817;48.170;8.592;2023-05-10T08:29:10;17.60;53.70
17399;DHT22;8817;48.170;8.592;2023-05-10T08:31:37;17.60;53.80
17399;DHT22;8817;48.170;8.592;2023-05-10T08:34:04;17.60;53.70
17399;DHT22;8817;48.170;8.592;2023-05-10T08:36:32;17.60;53.80
17399;DHT22;8817;48.170;8.592;2023-05-10T08:38:59;17.60;53.80
17399;DHT22;8817;48.170;8.592;2023-05-10T08:41:26;17.60;53.80
17399;DHT22;8817;48.170;8.592;2023-05-10T08:43:53;17.70;53.80
17399;DHT22;8817;48.170;8.592;2023-05-10T08:46:21;17.60;53.70
17399;DHT22;8817;48.170;8.592;2023-05-10T08:48:49;17.60;53.70
17399;DHT22;8817;48.170;8.592;2023-05-10T08:51:18;17.60;53.60
17399;DHT22;8817;48.170;8.592;2023-05-10T08:53:48;17.60;53.60
17399;DHT22;8817;48.170;8.592;2023-05-10T08:56:15;17.60;53.70
17399;DHT22;8817;48.170;8.592;2023-05-10T08:58:43;17.60;53.70
17399;DHT22;8817;48.170;8.592;2023-05-10T09:01:11;17.60;53.70
17399;DHT22;8817;48.170;8.592;2023-05-10T09:03:39;17.70;53.80
17399;DHT22;8817;48.170;8.592;2023-05-10T09:06:06;17.70;53.80
17399;DHT22;8817;48.170;8.592;2023-05-10T09:08:33;17.70;53.90
17399;DHT22;8817;48.170;8.592;2023-05-10T09:11:02;17.70;54.00
17399;DHT22;8817;48.170;8.592;2023-05-10T09:13:29;17.70;54.10
17399;DHT22;8817;48.170;8.592;2023-05-10T09:15:57;17.80;54.20
17399;DHT22;8817;48.170;8.592;2023-05-10T09:18:24;17.90;54.30
17399;DHT22;8817;48.170;8.592;2023-05-10T09:20:51;18.00;54.40
17399;DHT22;8817;48.170;8.592;2023-05-10T09:23:18;18.00;54.50
17399;DHT22;8817;48.170;8.592;2023-05-10T09:25:45;18.10;54.60
17399;DHT22;8817;48.170;8.592;2023-05-10T09:28:13;18.20;54.70
17399;DHT22;8817;48.170;8.592;2023-05-10T09:30:40;18.30;54.70
17399;DHT22;8817;48.170;8.592;2023-05-10T09:33:08;18.40;54.60
17399;DHT22;8817;48.170;8.592;2023-05-10T09:35:35;18.50;54.60
17399;DHT22;8817;48.170;8.592;2023-05-10T09:38:04;18.60;55.20
17399;DHT22;8817;48.170;8.592;2023-05-10T09:40:32;18.60;54.60
17399;DHT22;8817;48.170;8.592;2023-05-10T09:43:00;18.70;54.70
17399;DHT22;8817;48.170;8.592;2023-05-10T09:45:29;18.80;54.60
17399;DHT22;8817;48.170;8.592;2023-05-10T09:47:57;18.90;54.40
17399;DHT22;8817;48.170;8.592;2023-05-10T09:50:25;18.90;54.30
17399;DHT22;8817;48.170;8.592;2023-05-10T09:52:53;19.00;54.30
17399;DHT22;8817;48.170;8.592;2023-05-10T09:55:22;19.10;54.90
17399;DHT22;8817;48.170;8.592;2023-05-10T09:58:00;19.10;54.30
17399;DHT22;8817;48.170;8.592;2023-05-10T10:00:35;19.10;54.00
17399;DHT22;8817;48.170;8.592;2023-05-10T10:03:02;19.10;54.00
17399;DHT22;8817;48.170;8.592;2023-05-10T10:05:29;19.20;54.10
17399;DHT22;8817;48.170;8.592;2023-05-10T10:07:57;19.20;53.90
17399;DHT22;8817;48.170;8.592;2023-05-10T10:10:24;19.20;53.70
17399;DHT22;8817;48.170;8.592;2023-05-10T10:12:53;19.30;53.80
17399;DHT22;8817;48.170;8.592;2023-05-10T10:15:21;19.20;53.80
17399;DHT22;8817;48.170;8.592;2023-05-10T10:17:50;19.30;53.70
17399;DHT22;8817;48.170;8.592;2023-05-10T10:20:18;19.20;53.50
17399;DHT22;8817;48.170;8.592;2023-05-10T10:22:46;19.20;53.60
17399;DHT22;8817;48.170;8.592;2023-05-10T10:25:16;19.20;53.70
17399;DHT22;8817;48.170;8.592;2023-05-10T10:27:49;19.30;53.70
17399;DHT22;8817;48.170;8.592;2023-05-10T10:30:27;19.30;53.70
17399;DHT22;8817;48.170;8.592;2023-05-10T10:33:24;19.30;53.60
17399;DHT22;8817;48.170;8.592;2023-05-10T10:35:57;19.30;53.60
17399;DHT22;8817;48.170;8.592;2023-05-10T10:38:25;19.30;53.40
17399;DHT22;8817;48.170;8.592;2023-05-10T10:41:02;19.30;53.20
17399;DHT22;8817;48.170;8.592;2023-05-10T10:43:29;19.20;53.00
17399;DHT22;8817;48.170;8.592;2023-05-10T10:46:12;19.20;52.70
17399;DHT22;8817;48.170;8.592;2023-05-10T10:48:43;19.00;52.40
17399;DHT22;8817;48.170;8.592;2023-05-10T10:51:13;18.90;52.20
17399;DHT22;8817;48.170;8.592;2023-05-10T10:53:41;18.70;52.20
17399;DHT22;8817;48.170;8.592;2023-05-10T10:56:09;18.50;52.20
17399;DHT22;8817;48.170;8.592;2023-05-10T10:58:36;18.40;52.30
17399;DHT22;8817;48.170;8.592;2023-05-10T11:01:14;18.20;52.30
17399;DHT22;8817;48.170;8.592;2023-05-10T11:04:18;18.10;52.50
17399;DHT22;8817;48.170;8.592;2023-05-10T11:06:45;17.90;52.60
17399;DHT22;8817;48.170;8.592;2023-05-10T11:09:12;17.90;52.60
17399;DHT22;8817;48.170;8.592;2023-05-10T11:11:51;17.70;52.70
17399;DHT22;8817;48.170;8.592;2023-05-10T11:14:21;17.60;52.80
17399;DHT22;8817;48.170;8.592;2023-05-10T11:16:48;17.60;52.80
17399;DHT22;8817;48.170;8.592;2023-05-10T11:19:17;17.60;52.90
17399;DHT22;8817;48.170;8.592;2023-05-10T11:21:46;17.50;53.00
17399;DHT22;8817;48.170;8.592;2023-05-10T11:24:15;17.50;53.10
17399;DHT22;8817;48.170;8.592;2023-05-10T11:26:42;17.40;53.00
17399;DHT22;8817;48.170;8.592;2023-05-10T11:29:09;17.40;53.10
17399;DHT22;8817;48.170;8.592;2023-05-10T11:31:42;17.40;53.20
17399;DHT22;8817;48.170;8.592;2023-05-10T11:34:09;17.40;53.30
17399;DHT22;8817;48.170;8.592;2023-05-10T11:36:37;17.40;53.40
17399;DHT22;8817;48.170;8.592;2023-05-10T11:39:05;17.40;53.40
17399;DHT22;8817;48.170;8.592;2023-05-10T11:41:32;17.50;53.60
17399;DHT22;8817;48.170;8.592;2023-05-10T11:43:59;17.50;53.70
17399;DHT22;8817;48.170;8.592;2023-05-10T11:46:27;17.50;53.80
17399;DHT22;8817;48.170;8.592;2023-05-10T11:48:59;17.60;54.50
17399;DHT22;8817;48.170;8.592;2023-05-10T11:51:32;17.70;54.00
17399;DHT22;8817;48.170;8.592;2023-05-10T11:54:01;17.80;54.10
17399;DHT22;8817;48.170;8.592;2023-05-10T11:56:28;17.80;54.20
17399;DHT22;8817;48.170;8.592;2023-05-10T11:58:56;18.00;54.30
17399;DHT22;8817;48.170;8.592;2023-05-10T12:01:24;18.10;54.40
17399;DHT22;8817;48.170;8.592;2023-05-10T12:03:53;18.20;54.40
17399;DHT22;8817;48.170;8.592;2023-05-10T12:06:20;18.30;54.50
17399;DHT22;8817;48.170;8.592;2023-05-10T12:08:48;18.50;54.60
17399;DHT22;8817;48.170;8.592;2023-05-10T12:11:19;18.60;54.50
17399;DHT22;8817;48.170;8.592;2023-05-10T12:13:47;18.70;54.50
17399;DHT22;8817;48.170;8.592;2023-05-10T12:16:16;18.80;54.60
17399;DHT22;8817;48.170;8.592;2023-05-10T12:18:44;19.00;54.70
17399;DHT22;8817;48.170;8.592;2023-05-10T12:21:12;19.20;54.60
17399;DHT22;8817;48.170;8.592;2023-05-10T12:23:39;19.20;54.50
17399;DHT22;8817;48.170;8.592;2023-05-10T12:26:07;19.40;54.50
17399;DHT22;8817;48.170;8.592;2023-05-10T12:28:37;19.50;54.40
17399;DHT22;8817;48.170;8.592;2023-05-10T12:31:05;19.60;54.20
17399;DHT22;8817;48.170;8.592;2023-05-10T12:33:36;19.70;54.00
17399;DHT22;8817;48.170;8.592;2023-05-10T12:36:07;19.70;53.90
17399;DHT22;8817;48.170;8.592;2023-05-10T12:38:35;19.80;53.90
17399;DHT22;8817;48.170;8.592;2023-05-10T12:41:04;19.80;53.70
17399;DHT22;8817;48.170;8.592;2023-05-10T12:43:33;19.90;53.60
17399;DHT22;8817;48.170;8.592;2023-05-10T12:46:06;19.90;53.50
17399;DHT22;8817;48.170;8.592;2023-05-10T12:48:33;19.90;53.40
17399;DHT22;8817;48.170;8.592;2023-05-10T12:51:00;19.90;53.30
17399;DHT22;8817;48.170;8.592;2023-05-10T12:53:27;19.90;53.20
17399;DHT22;8817;48.170;8.592;2023-05-10T12:55:54;20.00;53.30
17399;DHT22;8817;48.170;8.592;2023-05-10T12:58:21;20.00;53.40
17399;DHT22;8817;48.170;8.592;2023-05-10T13:00:48;20.00;54.00
17399;DHT22;8817;48.170;8.592;2023-05-10T13:03:18;20.10;53.50
17399;DHT22;8817;48.170;8.592;2023-05-10T13:05:45;20.10;54.00
17399;DHT22;8817;48.170;8.592;2023-05-10T13:08:12;20.20;53.50
17399;DHT22;8817;48.170;8.592;2023-05-10T13:10:39;20.30;53.50
17399;DHT22;8817;48.170;8.592;2023-05-10T13:13:06;20.30;53.30
17399;DHT22;8817;48.170;8.592;2023-05-10T13:15:34;20.30;53.20
17399;DHT22;8817;48.170;8.592;2023-05-10T13:18:01;20.40;53.10
17399;DHT22;8817;48.170;8.592;2023-05-10T13:20:29;20.40;53.10
17399;DHT22;8817;48.170;8.592;2023-05-10T13:22:56;20.40;53.00
17399;DHT22;8817;48.170;8.592;2023-05-10T13:25:23;20.40;52.90
17399;DHT22;8817;48.170;8.592;2023-05-10T13:27:50;20.40;52.80
17399;DHT22;8817;48.170;8.592;2023-05-10T13:30:17;20.40;52.80
17399;DHT22;8817;48.170;8.592;2023-05-10T13:32:43;20.40;52.70
17399;DHT22;8817;48.170;8.592;2023-05-10T13:35:11;20.40;52.60
17399;DHT22;8817;48.170;8.592;2023-05-10T13:37:39;20.30;52.50
17399;DHT22;8817;48.170;8.592;2023-05-10T13:40:07;20.30;52.40
17399;DHT22;8817;48.170;8.592;2023-05-10T13:42:34;20.20;52.50
17399;DHT22;8817;48.170;8.592;2023-05-10T13:45:01;20.20;52.60
17399;DHT22;8817;48.170;8.592;2023-05-10T13:47:28;20.20;53.20
17399;DHT22;8817;48.170;8.592;2023-05-10T13:49:55;20.20;52.80
17399;DHT22;8817;48.170;8.592;2023-05-10T13:52:22;20.20;52.90
17399;DHT22;8817;48.170;8.592;2023-05-10T13:54:51;20.20;53.00
17399;DHT22;8817;48.170;8.592;2023-05-10T13:57:20;20.20;52.90
17399;DHT22;8817;48.170;8.592;2023-05-10T13:59:47;20.30;52.90
17399;DHT22;8817;48.170;8.592;2023-05-10T14:02:14;20.30;52.80
17399;DHT22;8817;48.170;8.592;2023-05-10T14:04:41;20.40;52.80
17399;DHT22;8817;48.170;8.592;2023-05-10T14:07:08;20.40;52.70
17399;DHT22;8817;48.170;8.592;2023-05-10T14:09:35;20.40;52.60
17399;DHT22;8817;48.170;8.592;2023-05-10T14:12:03;20.40;52.50
17399;DHT22;8817;48.170;8.592;2023-05-10T14:14:30;20.40;52.40
17399;DHT22;8817;48.170;8.592;2023-05-10T14:16:57;20.40;52.30
17399;DHT22;8817;48.170;8.592;2023-05-10T14:19:24;20.30;52.20
17399;DHT22;8817;48.170;8.592;2023-05-10T14:21:52;20.30;52.10
17399;DHT22;8817;48.170;8.592;2023-05-10T14:24:19;20.20;52.00
17399;DHT22;8817;48.170;8.592;2023-05-10T14:26:46;20.20;51.90
17399;DHT22;8817;48.170;8.592;2023-05-10T14:29:14;20.10;52.30
17399;DHT22;8817;48.170;8.592;2023-05-10T14:31:41;19.90;51.60
17399;DHT22;8817;48.170;8.592;2023-05-10T14:34:07;19.80;51.60
17399;DHT22;8817;48.170;8.592;2023-05-10T14:36:34;19.70;51.70
17399;DHT22;8817;48.170;8.592;2023-05-10T14:39:01;19.70;51.80
17399;DHT22;8817;48.170;8.592;2023-05-10T14:41:29;19.60;52.00
17399;DHT22;8817;48.170;8.592;2023-05-10T14:43:56;19.60;52.10
17399;DHT22;8817;48.170;8.592;2023-05-10T14:46:24;19.50;52.20
17399;DHT22;8817;48.170;8.592;2023-05-10T14:48:51;19.50;52.30
17399;DHT22;8817;48.170;8.592;2023-05-10T14:51:18;19.50;52.50
17399;DHT22;8817;48.170;8.592;2023-05-10T14:53:47;19.50;52.60
17399;DHT22;8817;48.170;8.592;2023-05-10T14:56:14;19.60;52.80
17399;DHT22;8817;48.170;8.592;2023-05-10T14:58:41;19.60;52.80
17399;DHT22;8817;48.170;8.592;2023-05-10T15:01:08;19.60;52.90
17399;DHT22;8817;48.170;8.592;2023-05-10T15:03:36;19.70;53.00
17399;DHT22;8817;48.170;8.592;2023-05-10T15:06:04;19.70;53.00
17399;DHT22;8817;48.170;8.592;2023-05-10T15:08:31;19.80;52.90
17399;DHT22;8817;48.170;8.592;2023-05-10T15:10:58;19.90;52.90
17399;DHT22;8817;48.170;8.592;2023-05-10T15:13:24;20.00;52.90
17399;DHT22;8817;48.170;8.592;2023-05-10T15:15:51;20.00;52.80
17399;DHT22;8817;48.170;8.592;2023-05-10T15:18:18;20.10;52.60
17399;DHT22;8817;48.170;8.592;2023-05-10T15:20:47;20.10;52.50
17399;DHT22;8817;48.170;8.592;2023-05-10T15:23:13;20.10;52.50
17399;DHT22;8817;48.170;8.592;2023-05-10T15:25:40;20.20;52.50
17399;DHT22;8817;48.170;8.592;2023-05-10T15:28:07;20.20;52.40
17399;DHT22;8817;48.170;8.592;2023-05-10T15:30:34;20.20;52.40
17399;DHT22;8817;48.170;8.592;2023-05-10T15:33:01;20.20;52.30
17399;DHT22;8817;48.170;8.592;2023-05-10T15:35:28;20.20;52.30
17399;DHT22;8817;48.170;8.592;2023-05-10T15:37:56;20.20;52.30
17399;DHT22;8817;48.170;8.592;2023-05-10T15:40:23;20.20;52.30
17399;DHT22;8817;48.170;8.592;2023-05-10T15:42:50;20.20;52.30
17399;DHT22;8817;48.170;8.592;2023-05-10T15:45:17;20.30;52.20
17399;DHT22;8817;48.170;8.592;2023-05-10T15:47:44;20.20;52.00
17399;DHT22;8817;48.170;8.592;2023-05-10T15:50:11;20.20;51.90
17399;DHT22;8817;48.170;8.592;2023-05-10T15:52:38;20.20;51.90
17399;DHT22;8817;48.170;8.592;2023-05-10T15:55:08;20.20;51.80